createdAt,value
2022-10-21T00:00:59.796Z,6.57
2022-10-21T00:03:27.830Z,2.40
2022-10-21T00:08:22.126Z,4.15
2022-10-21T00:10:54.649Z,4.97
2022-10-21T00:13:23.428Z,3.35
2022-10-21T00:16:04.334Z,4.13
2022-10-21T00:18:33.472Z,2.92
2022-10-21T00:21:01.495Z,3.90
2022-10-21T00:25:59.099Z,2.35
2022-10-21T00:28:27.067Z,3.83
2022-10-21T00:30:54.506Z,2.67
2022-10-21T00:33:21.786Z,6.35
2022-10-21T00:35:57.431Z,4.90
2022-10-21T00:38:24.747Z,5.47
2022-10-21T00:40:51.786Z,3.83
2022-10-21T00:43:18.735Z,6.40
2022-10-21T00:45:48.046Z,6.30
2022-10-21T00:48:31.918Z,5.50
2022-10-21T00:51:16.276Z,4.28
2022-10-21T00:53:49.378Z,4.63
2022-10-21T00:56:24.555Z,4.63
2022-10-21T00:58:54.502Z,2.70
2022-10-21T01:01:22.610Z,6.45
2022-10-21T01:08:46.595Z,3.58
2022-10-21T01:11:18.130Z,5.90
2022-10-21T01:14:20.542Z,2.90
2022-10-21T01:17:26.307Z,2.03
2022-10-21T01:20:36.986Z,4.43
2022-10-21T01:23:41.705Z,2.05
2022-10-21T01:26:42.987Z,4.07
2022-10-21T01:29:25.155Z,3.40
2022-10-21T01:32:02.330Z,3.00
2022-10-21T01:34:42.020Z,3.47
2022-10-21T01:37:15.203Z,2.53
2022-10-21T01:39:50.032Z,1.38
2022-10-21T01:42:40.109Z,3.53
2022-10-21T01:45:18.005Z,3.53
2022-10-21T01:47:50.261Z,6.43
2022-10-21T01:50:24.993Z,3.30
2022-10-21T01:52:59.628Z,3.28
2022-10-21T01:55:30.848Z,3.47
2022-10-21T01:58:24.340Z,5.65
2022-10-21T02:00:54.505Z,2.55
2022-10-21T02:03:25.465Z,4.50
2022-10-21T02:05:53.036Z,1.88
2022-10-21T02:08:20.641Z,1.30
2022-10-21T02:10:51.067Z,3.50
2022-10-21T02:13:25.327Z,2.00
2022-10-21T02:15:58.847Z,4.35
2022-10-21T02:18:27.001Z,5.43
2022-10-21T02:23:36.568Z,1.55
2022-10-21T02:26:03.888Z,2.78
2022-10-21T02:28:31.284Z,3.22
2022-10-21T02:31:05.866Z,3.17
2022-10-21T02:33:57.525Z,1.00
2022-10-21T02:36:36.207Z,2.97
2022-10-21T02:39:12.970Z,2.13
2022-10-21T02:41:42.229Z,1.65
2022-10-21T02:44:09.799Z,1.75
2022-10-21T02:46:48.270Z,1.98
2022-10-21T02:49:17.722Z,3.95
2022-10-21T02:51:46.133Z,3.00
2022-10-21T02:54:13.980Z,4.20
2022-10-21T02:56:41.161Z,1.17
2022-10-21T02:59:09.096Z,1.10
2022-10-21T03:01:36.010Z,1.50
2022-10-21T03:04:03.284Z,2.60
2022-10-21T03:06:30.469Z,1.77
2022-10-21T03:08:57.402Z,2.17
2022-10-21T03:11:24.448Z,1.25
2022-10-21T03:13:51.687Z,2.30
2022-10-21T03:18:50.389Z,2.65
2022-10-21T03:21:17.461Z,1.40
2022-10-21T03:23:44.391Z,2.63
2022-10-21T03:26:11.651Z,1.83
2022-10-21T03:28:39.746Z,1.58
2022-10-21T03:31:06.834Z,1.67
2022-10-21T03:33:33.719Z,1.10
2022-10-21T03:36:01.126Z,0.85
2022-10-21T03:38:28.115Z,2.08
2022-10-21T03:40:55.108Z,2.75
2022-10-21T03:43:22.160Z,2.58
2022-10-21T03:45:49.103Z,0.67
2022-10-21T03:48:16.377Z,1.73
2022-10-21T03:50:43.316Z,3.22
2022-10-21T03:53:24.461Z,0.40
2022-10-21T03:55:57.880Z,1.80
2022-10-21T03:58:25.887Z,4.43
2022-10-21T04:03:21.545Z,0.70
2022-10-21T04:05:48.918Z,2.55
2022-10-21T04:08:16.061Z,4.57
2022-10-21T04:10:45.343Z,2.20
2022-10-21T04:13:12.414Z,2.63
2022-10-21T04:15:39.378Z,2.15
2022-10-21T04:18:07.801Z,2.22
2022-10-21T04:20:35.202Z,1.70
2022-10-21T04:23:02.881Z,2.80
2022-10-21T04:25:29.838Z,3.15
2022-10-21T04:27:59.912Z,0.77
2022-10-21T04:30:26.856Z,2.53
2022-10-21T04:32:54.171Z,5.45
2022-10-21T04:35:21.598Z,3.83
2022-10-21T04:37:48.786Z,2.97
2022-10-21T04:40:16.043Z,2.25
2022-10-21T04:42:47.978Z,1.50
2022-10-21T04:45:15.177Z,3.30
2022-10-21T04:47:42.342Z,4.57
2022-10-21T04:50:10.253Z,2.38
2022-10-21T04:52:38.427Z,5.47
2022-10-21T04:55:06.317Z,1.58
2022-10-21T04:57:33.405Z,2.30
2022-10-21T05:00:00.287Z,3.77
2022-10-21T05:02:27.389Z,2.58
2022-10-21T05:04:54.340Z,1.27
2022-10-21T05:07:21.367Z,3.08
2022-10-21T05:09:48.572Z,2.80
2022-10-21T05:12:15.886Z,3.47
2022-10-21T05:14:43.066Z,2.78
2022-10-21T05:17:10.303Z,2.58
2022-10-21T05:19:37.349Z,2.95
2022-10-21T05:22:04.558Z,4.37
2022-10-21T05:24:31.500Z,3.42
2022-10-21T05:26:58.411Z,2.33
2022-10-21T05:29:25.317Z,3.53
2022-10-21T05:31:52.455Z,3.10
2022-10-21T05:34:19.652Z,1.60
2022-10-21T05:36:49.104Z,4.68
2022-10-21T05:39:16.201Z,3.50
2022-10-21T05:41:45.556Z,2.50
2022-10-21T05:44:14.949Z,0.98
2022-10-21T05:46:42.079Z,6.35
2022-10-21T05:49:09.080Z,2.33
2022-10-21T05:51:36.277Z,2.63
2022-10-21T05:54:05.764Z,3.13
2022-10-21T05:56:33.457Z,2.28
2022-10-21T05:59:00.689Z,1.33
2022-10-21T06:01:27.748Z,2.47
2022-10-21T06:03:54.960Z,3.70
2022-10-21T06:06:22.190Z,1.73
2022-10-21T06:08:49.551Z,5.75
2022-10-21T06:11:19.435Z,1.08
2022-10-21T06:13:46.794Z,4.00
2022-10-21T06:16:15.254Z,2.47
2022-10-21T06:18:43.172Z,2.53
2022-10-21T06:21:10.996Z,3.63
2022-10-21T06:23:38.842Z,1.17
2022-10-21T06:26:08.901Z,3.67
2022-10-21T06:28:37.561Z,4.32
2022-10-21T06:31:06.029Z,2.17
2022-10-21T06:33:34.185Z,1.63
2022-10-21T06:36:01.983Z,1.73
2022-10-21T06:38:28.957Z,2.80
2022-10-21T06:41:07.908Z,2.90
2022-10-21T06:43:37.640Z,3.33
2022-10-21T06:46:12.081Z,2.50
2022-10-21T06:48:39.713Z,3.85
2022-10-21T06:51:16.497Z,3.72
2022-10-21T06:53:44.498Z,3.22
2022-10-21T06:58:43.562Z,5.45
2022-10-21T07:01:21.677Z,4.40
2022-10-21T07:03:59.704Z,3.55
2022-10-21T07:06:27.003Z,3.45
2022-10-21T07:08:58.304Z,6.28
2022-10-21T07:11:26.763Z,4.10
2022-10-21T07:16:28.545Z,3.47
2022-10-21T07:18:56.504Z,3.03
2022-10-21T07:23:54.726Z,5.75
2022-10-21T07:26:25.298Z,4.95
2022-10-21T07:28:52.592Z,3.38
2022-10-21T07:31:21.787Z,5.00
2022-10-21T07:33:49.343Z,3.67
2022-10-21T07:36:27.123Z,4.10
2022-10-21T07:41:25.426Z,5.53
2022-10-21T07:43:53.955Z,4.72
2022-10-21T07:46:22.211Z,1.88
2022-10-21T07:48:50.191Z,3.67
2022-10-21T07:51:20.305Z,2.30
2022-10-21T07:53:49.691Z,3.13
2022-10-21T07:56:19.691Z,3.28
2022-10-21T07:58:49.208Z,3.58
2022-10-21T08:01:17.996Z,4.43
2022-10-21T08:03:45.806Z,4.80
2022-10-21T08:06:15.054Z,4.35
2022-10-21T08:08:42.453Z,4.07
2022-10-21T08:11:09.976Z,3.72
2022-10-21T08:13:40.912Z,2.40
2022-10-21T08:16:08.233Z,3.42
2022-10-21T08:18:35.113Z,5.00
2022-10-21T08:21:04.754Z,3.70
2022-10-21T08:23:31.915Z,3.00
2022-10-21T08:26:03.856Z,4.68
2022-10-21T08:28:31.733Z,2.50
2022-10-21T08:33:37.027Z,2.45
2022-10-21T08:36:10.022Z,4.32
2022-10-21T08:38:37.299Z,3.10
2022-10-21T08:41:20.241Z,5.25
2022-10-21T08:43:47.632Z,3.08
2022-10-21T08:46:19.991Z,2.92
2022-10-21T08:49:20.186Z,3.63
2022-10-21T08:51:56.016Z,3.92
2022-10-21T08:54:31.547Z,2.85
2022-10-21T08:57:01.089Z,3.10
2022-10-21T08:59:28.210Z,4.05
2022-10-21T09:02:42.973Z,2.03
2022-10-21T09:05:18.566Z,2.05
2022-10-21T09:08:00.623Z,2.17
2022-10-21T09:10:37.576Z,1.63
2022-10-21T09:13:25.674Z,3.35
2022-10-21T09:16:10.582Z,3.45
2022-10-21T09:19:01.334Z,1.58
2022-10-21T09:22:16.204Z,1.60
2022-10-21T09:25:03.587Z,1.35
2022-10-21T09:27:51.288Z,1.20
2022-10-21T09:30:25.095Z,3.88
2022-10-21T09:32:58.115Z,2.47
2022-10-21T09:35:37.277Z,1.05
2022-10-21T09:38:07.290Z,2.65
2022-10-21T09:40:35.010Z,4.90
2022-10-21T09:48:06.068Z,3.25
2022-10-21T09:50:35.084Z,3.10
2022-10-21T09:53:08.924Z,2.72
2022-10-21T09:55:39.165Z,4.07
2022-10-21T09:58:06.673Z,1.60
2022-10-21T10:00:49.468Z,2.20
2022-10-21T10:03:38.297Z,1.33
2022-10-21T10:06:06.891Z,2.08
2022-10-21T10:08:48.274Z,2.25
2022-10-21T10:11:19.189Z,3.15
2022-10-21T10:13:51.927Z,2.22
2022-10-21T10:16:31.541Z,2.08
2022-10-21T10:19:23.640Z,2.53
2022-10-21T10:22:14.296Z,2.30
2022-10-21T10:24:43.346Z,2.50
2022-10-21T10:27:30.529Z,1.55
2022-10-21T10:30:00.297Z,2.30
2022-10-21T10:32:34.505Z,0.82
2022-10-21T10:35:05.033Z,1.77
2022-10-21T10:37:35.679Z,3.38
2022-10-21T10:40:07.185Z,2.88
2022-10-21T10:42:41.780Z,4.80
2022-10-21T10:45:19.842Z,3.35
2022-10-21T10:48:00.741Z,3.45
2022-10-21T10:50:48.019Z,2.85
2022-10-21T10:53:36.983Z,2.67
2022-10-21T10:56:03.833Z,3.00
2022-10-21T10:58:36.669Z,1.27
2022-10-21T11:01:13.911Z,2.08
2022-10-21T11:03:51.253Z,1.33
2022-10-21T11:06:22.034Z,2.45
2022-10-21T11:08:54.602Z,3.03
2022-10-21T11:11:37.443Z,2.88
2022-10-21T11:14:04.456Z,1.52
2022-10-21T11:16:57.249Z,3.30
2022-10-21T11:19:35.821Z,3.28
2022-10-21T11:22:28.043Z,2.45
2022-10-21T11:25:07.645Z,2.58
2022-10-21T11:27:58.083Z,2.75
2022-10-21T11:30:50.163Z,3.78
2022-10-21T11:33:36.224Z,0.85
2022-10-21T11:36:12.263Z,1.30
2022-10-21T11:39:05.118Z,2.60
2022-10-21T11:41:33.693Z,2.95
2022-10-21T11:44:12.705Z,2.70
2022-10-21T11:47:20.734Z,1.98
2022-10-21T11:50:18.222Z,1.98
2022-10-21T11:53:13.239Z,1.27
2022-10-21T11:56:10.798Z,1.83
2022-10-21T11:59:21.010Z,1.70
2022-10-21T12:02:17.785Z,1.52
2022-10-21T12:04:48.383Z,2.05
2022-10-21T12:07:36.209Z,2.22
2022-10-21T12:10:30.545Z,2.40
2022-10-21T12:13:02.966Z,1.13
2022-10-21T12:15:41.747Z,3.47
2022-10-21T12:18:16.322Z,2.28
2022-10-21T12:20:47.164Z,2.08
2022-10-21T12:23:18.750Z,1.65
2022-10-21T12:26:00.437Z,1.98
2022-10-21T12:28:39.339Z,3.38
2022-10-21T12:31:26.795Z,1.45
2022-10-21T12:36:39.214Z,2.63
2022-10-21T12:39:17.090Z,1.50
2022-10-21T12:41:47.899Z,1.73
2022-10-21T12:44:22.672Z,1.70
2022-10-21T12:46:55.784Z,1.13
2022-10-21T12:49:30.948Z,1.02
2022-10-21T12:52:02.944Z,3.25
2022-10-21T12:54:35.030Z,1.17
2022-10-21T12:57:09.186Z,1.50
2022-10-21T12:59:39.968Z,3.10
2022-10-21T13:02:08.270Z,4.03
2022-10-21T13:04:35.168Z,1.40
2022-10-21T13:07:04.436Z,1.73
2022-10-21T13:09:52.427Z,1.73
2022-10-21T13:12:24.940Z,1.88
2022-10-21T13:14:54.077Z,1.40
2022-10-21T13:17:21.314Z,2.83
2022-10-21T13:19:50.647Z,3.92
2022-10-21T13:22:36.231Z,3.58
2022-10-21T13:25:24.486Z,2.92
2022-10-21T13:27:53.824Z,1.45
2022-10-21T13:30:31.332Z,1.95
2022-10-21T13:33:21.182Z,1.80
2022-10-21T13:35:53.603Z,1.85
2022-10-21T13:38:33.480Z,2.88
2022-10-21T13:41:04.203Z,2.60
2022-10-21T13:43:50.271Z,1.42
2022-10-21T13:46:22.233Z,2.00
2022-10-21T13:48:49.726Z,0.80
2022-10-21T13:51:26.199Z,2.33
2022-10-21T13:54:00.884Z,6.75
2022-10-21T13:56:36.347Z,2.95
2022-10-21T13:59:05.116Z,2.88
2022-10-21T14:01:46.715Z,1.38
2022-10-21T14:04:26.075Z,1.05
2022-10-21T14:07:08.385Z,3.55
2022-10-21T14:09:46.018Z,1.17
2022-10-21T14:14:55.485Z,2.25
2022-10-21T14:17:29.283Z,3.60
2022-10-21T14:20:06.745Z,2.47
2022-10-21T14:22:34.160Z,3.90
2022-10-21T14:25:02.717Z,1.00
2022-10-21T14:27:35.682Z,4.40
2022-10-21T14:30:06.880Z,2.40
2022-10-21T14:32:35.163Z,2.03
2022-10-21T14:35:13.107Z,2.95
2022-10-21T14:37:55.093Z,1.50
2022-10-21T14:40:41.868Z,3.90
2022-10-21T14:43:23.705Z,2.10
2022-10-21T14:45:53.121Z,1.83
2022-10-21T14:48:29.430Z,25.10
2022-10-21T14:51:03.130Z,7.47
2022-10-21T14:53:35.055Z,2.85
2022-10-21T14:56:07.932Z,1.48
2022-10-21T14:58:39.407Z,3.97
2022-10-21T15:01:15.111Z,2.40
2022-10-21T15:03:45.573Z,3.70
2022-10-21T15:06:12.560Z,3.33
2022-10-21T15:08:44.496Z,2.25
2022-10-21T15:11:19.060Z,1.95
2022-10-21T15:14:26.107Z,3.85
2022-10-21T15:19:45.346Z,2.03
2022-10-21T15:22:26.977Z,4.32
2022-10-21T15:25:00.228Z,2.03
2022-10-21T15:27:36.604Z,2.25
2022-10-21T15:30:18.259Z,3.30
2022-10-21T15:32:45.939Z,1.55
2022-10-21T15:35:18.820Z,2.17
2022-10-21T15:37:53.198Z,2.45
2022-10-21T15:40:22.117Z,2.05
2022-10-21T15:42:50.024Z,3.40
2022-10-21T15:47:55.385Z,1.90
2022-10-21T15:50:26.032Z,1.65
2022-10-21T15:52:53.758Z,2.55
2022-10-21T15:55:21.097Z,2.83
2022-10-21T15:57:48.076Z,3.40
2022-10-21T16:00:20.352Z,5.50
2022-10-21T16:02:52.198Z,2.35
2022-10-21T16:05:20.007Z,3.35
2022-10-21T16:07:47.523Z,3.50
2022-10-21T16:10:20.114Z,3.60
2022-10-21T16:12:49.483Z,6.15
2022-10-21T16:15:18.110Z,6.82
2022-10-21T16:17:49.109Z,3.28
2022-10-21T16:20:24.264Z,4.05
2022-10-21T16:22:52.018Z,5.80
2022-10-21T16:25:20.092Z,4.05
2022-10-21T16:27:55.974Z,3.20
2022-10-21T16:30:37.142Z,6.35
2022-10-21T16:33:04.636Z,5.35
2022-10-21T16:35:32.253Z,5.90
2022-10-21T16:37:59.628Z,6.55
2022-10-21T16:40:31.970Z,4.07
2022-10-21T16:42:59.296Z,3.58
2022-10-21T16:45:30.855Z,4.57
2022-10-21T16:48:00.488Z,4.70
2022-10-21T16:50:34.773Z,4.95
2022-10-21T16:53:02.744Z,5.15
2022-10-21T16:57:56.832Z,3.00
2022-10-21T17:00:23.820Z,5.78
2022-10-21T17:02:51.700Z,5.53
2022-10-21T17:05:19.158Z,4.40
2022-10-21T17:07:46.260Z,5.13
2022-10-21T17:10:14.324Z,6.57
2022-10-21T17:15:09.442Z,5.60
2022-10-21T17:17:36.855Z,10.45
2022-10-21T17:20:04.490Z,9.60
2022-10-21T17:22:31.631Z,9.52
2022-10-21T17:24:58.887Z,7.13
2022-10-21T17:27:26.038Z,8.50
2022-10-21T17:29:53.214Z,14.18
2022-10-21T17:32:20.333Z,9.50
2022-10-21T17:34:47.497Z,15.60
2022-10-21T17:37:14.492Z,11.43
2022-10-21T17:39:41.475Z,13.93
2022-10-21T17:42:14.915Z,12.43
2022-10-21T17:44:41.886Z,12.10
2022-10-21T17:47:10.307Z,14.70
2022-10-21T17:49:37.407Z,7.78
2022-10-21T17:52:04.462Z,8.37
2022-10-21T17:54:32.743Z,5.38
2022-10-21T17:57:02.249Z,6.97
2022-10-21T17:59:29.504Z,9.90
2022-10-21T18:01:56.406Z,9.63
2022-10-21T18:04:23.490Z,8.75
2022-10-21T18:06:50.840Z,11.17
2022-10-21T18:09:18.461Z,9.57
2022-10-21T18:11:45.841Z,5.35
2022-10-21T18:14:14.515Z,8.52
2022-10-21T18:16:41.751Z,14.05
2022-10-21T18:19:09.288Z,18.70
2022-10-21T18:21:36.368Z,12.88
2022-10-21T18:24:04.865Z,17.77
2022-10-21T18:26:33.655Z,10.90
2022-10-21T18:29:02.655Z,7.65
2022-10-21T18:31:33.170Z,8.82
2022-10-21T18:34:01.922Z,7.35
2022-10-21T18:36:29.216Z,8.15
2022-10-21T18:38:59.197Z,9.07
2022-10-21T18:41:26.662Z,11.65
2022-10-21T18:43:54.987Z,8.10
2022-10-21T18:46:23.183Z,7.57
2022-10-21T18:48:50.731Z,11.35
2022-10-21T18:51:19.829Z,12.93
2022-10-21T18:53:50.180Z,6.15
2022-10-21T18:56:22.120Z,7.18
2022-10-21T18:58:50.131Z,6.47
2022-10-21T19:03:45.258Z,7.55
2022-10-21T19:06:29.693Z,8.05
2022-10-21T19:08:57.615Z,5.88
2022-10-21T19:11:25.464Z,6.75
2022-10-21T19:13:52.397Z,6.15
2022-10-21T19:16:19.717Z,7.32
2022-10-21T19:18:47.128Z,10.10
2022-10-21T19:21:20.282Z,7.30
2022-10-21T19:23:47.937Z,8.88
2022-10-21T19:26:18.737Z,5.72
2022-10-21T19:28:47.325Z,8.35
2022-10-21T19:31:15.351Z,7.43
2022-10-21T19:36:11.123Z,3.37
2022-10-21T19:38:44.115Z,4.22
2022-10-21T19:41:15.629Z,5.82
2022-10-21T19:43:42.819Z,4.85
2022-10-21T19:46:14.704Z,7.40
2022-10-21T19:48:41.778Z,5.63
2022-10-21T19:51:15.180Z,5.90
2022-10-21T19:53:45.405Z,4.70
2022-10-21T19:56:14.457Z,3.72
2022-10-21T19:58:44.099Z,7.47
2022-10-21T20:01:13.416Z,4.72
2022-10-21T20:03:44.597Z,5.60
2022-10-21T20:06:16.443Z,6.00
2022-10-21T20:08:47.012Z,5.38
2022-10-21T20:11:16.750Z,4.85
2022-10-21T20:13:45.335Z,10.02
2022-10-21T20:16:24.727Z,3.28
2022-10-21T20:18:52.006Z,4.70
2022-10-21T20:21:19.331Z,5.07
2022-10-21T20:23:46.533Z,6.35
2022-10-21T20:26:13.447Z,6.25
2022-10-21T20:28:40.402Z,7.57
2022-10-21T20:31:15.892Z,7.32
2022-10-21T20:33:52.905Z,6.53
2022-10-21T20:36:29.790Z,6.37
2022-10-21T20:39:00.317Z,13.95
2022-10-21T20:41:33.847Z,4.72
2022-10-21T20:44:03.196Z,6.07
2022-10-21T20:46:35.282Z,5.53
2022-10-21T20:49:07.104Z,7.80
2022-10-21T20:51:36.500Z,5.47
2022-10-21T20:54:09.008Z,4.35
2022-10-21T20:56:39.487Z,3.75
2022-10-21T20:59:08.474Z,6.07
2022-10-21T21:01:41.568Z,3.63
2022-10-21T21:04:11.641Z,5.93
2022-10-21T21:06:44.764Z,5.35
2022-10-21T21:12:00.647Z,6.63
2022-10-21T21:14:27.644Z,4.40
2022-10-21T21:16:57.270Z,4.20
2022-10-21T21:19:24.987Z,6.35
2022-10-21T21:21:51.956Z,3.92
2022-10-21T21:24:18.910Z,5.55
2022-10-21T21:26:46.452Z,3.40
2022-10-21T21:29:14.271Z,4.28
2022-10-21T21:31:42.310Z,5.20
2022-10-21T21:36:37.455Z,5.32
2022-10-21T21:39:06.431Z,3.45
2022-10-21T21:41:34.118Z,4.93
2022-10-21T21:44:01.212Z,7.88
2022-10-21T21:46:28.487Z,8.13
2022-10-21T21:49:04.651Z,8.00
2022-10-21T21:51:34.822Z,6.45
2022-10-21T21:54:03.424Z,8.40
2022-10-21T21:56:30.597Z,3.95
2022-10-21T21:58:58.312Z,3.67
2022-10-21T22:01:27.967Z,4.80
2022-10-21T22:03:56.925Z,4.68
2022-10-21T22:08:59.229Z,5.22
2022-10-21T22:11:29.513Z,2.92
2022-10-21T22:13:56.637Z,5.68
2022-10-21T22:16:26.058Z,4.87
2022-10-21T22:18:54.722Z,2.88
2022-10-21T22:21:22.010Z,3.40
2022-10-21T22:23:50.389Z,3.95
2022-10-21T22:26:20.502Z,6.78
2022-10-21T22:28:47.752Z,1.90
2022-10-21T22:31:17.223Z,2.22
2022-10-21T22:33:46.616Z,4.95
2022-10-21T22:36:16.720Z,3.90
2022-10-21T22:38:44.921Z,4.50
2022-10-21T22:41:12.870Z,2.85
2022-10-21T22:43:40.209Z,2.50
2022-10-21T22:46:22.069Z,4.13
2022-10-21T22:48:54.668Z,2.38
2022-10-21T22:51:21.823Z,3.00
2022-10-21T22:53:53.570Z,3.88
2022-10-21T22:56:27.918Z,2.35
2022-10-21T22:58:55.416Z,4.30
2022-10-21T23:01:24.261Z,3.45
2022-10-21T23:03:51.852Z,3.33
2022-10-21T23:06:19.035Z,2.65
2022-10-21T23:08:46.011Z,5.95
2022-10-21T23:11:13.787Z,4.70
2022-10-21T23:13:51.148Z,2.88
2022-10-21T23:16:28.063Z,2.08
2022-10-21T23:18:55.528Z,3.53
2022-10-21T23:21:22.498Z,3.17
2022-10-21T23:23:49.397Z,2.08
2022-10-21T23:26:19.365Z,0.95
2022-10-21T23:28:46.306Z,2.88
2022-10-21T23:31:13.232Z,1.23
2022-10-21T23:33:40.597Z,3.42
2022-10-21T23:36:08.127Z,4.68
2022-10-21T23:38:35.143Z,6.93
2022-10-21T23:41:02.102Z,1.27
2022-10-21T23:43:29.231Z,4.43
2022-10-21T23:45:56.203Z,2.30
2022-10-21T23:48:23.579Z,4.25
2022-10-21T23:50:50.610Z,2.33
2022-10-21T23:53:17.722Z,3.10
2022-10-21T23:55:44.781Z,3.65
2022-10-21T23:58:11.721Z,4.28
